createdAt,value
2023-02-09T00:01:33.079Z,103157.19
2023-02-09T00:06:26.497Z,103162.06
2023-02-09T00:11:44.602Z,103165.61
2023-02-09T00:16:37.457Z,103159.23
2023-02-09T00:21:30.578Z,103160.78
2023-02-09T00:26:23.383Z,103159.05
2023-02-09T00:31:16.960Z,103152.73
2023-02-09T00:36:12.907Z,103151.58
2023-02-09T00:41:07.428Z,103149.73
2023-02-09T00:46:00.668Z,103146.04
2023-02-09T00:50:54.533Z,103153.58
2023-02-09T00:55:48.174Z,103146.96
2023-02-09T01:00:41.076Z,103131.27
2023-02-09T01:05:35.067Z,103128.39
2023-02-09T01:10:27.952Z,103124.61
2023-02-09T01:15:20.754Z,103116.33
2023-02-09T01:20:14.616Z,103107.73
2023-02-09T01:25:09.110Z,103094.29
2023-02-09T01:30:02.424Z,103090.42
2023-02-09T01:34:55.623Z,103088.35
2023-02-09T01:39:48.460Z,103086.48
2023-02-09T01:44:41.230Z,103072.25
2023-02-09T01:49:34.066Z,103065.37
2023-02-09T01:54:41.969Z,103054.07
2023-02-09T01:59:37.912Z,103039.98
2023-02-09T02:04:32.112Z,103026.95
2023-02-09T02:09:25.456Z,103022.05
2023-02-09T02:14:35.284Z,103022.30
2023-02-09T02:19:40.388Z,103017.80
2023-02-09T02:25:04.024Z,103009.02
2023-02-09T02:30:27.958Z,102993.20
2023-02-09T02:35:34.577Z,102987.23
2023-02-09T02:40:55.414Z,102978.40
2023-02-09T02:45:50.855Z,102966.73
2023-02-09T02:50:51.950Z,102960.60
2023-02-09T02:55:47.410Z,102964.51
2023-02-09T03:00:45.463Z,102965.52
2023-02-09T03:05:39.520Z,102957.58
2023-02-09T03:10:36.599Z,102952.35
2023-02-09T03:15:47.843Z,102946.98
2023-02-09T03:20:47.941Z,102939.73
2023-02-09T03:25:46.303Z,102924.11
2023-02-09T03:30:42.204Z,102923.02
2023-02-09T03:35:41.344Z,102916.27
2023-02-09T03:40:35.894Z,102912.34
2023-02-09T03:45:28.791Z,102915.33
2023-02-09T03:50:21.694Z,102920.82
2023-02-09T03:55:14.514Z,102919.41
2023-02-09T04:00:08.656Z,102920.75
2023-02-09T04:05:08.246Z,102923.71
2023-02-09T04:10:01.361Z,102923.29
2023-02-09T04:14:54.242Z,102915.89
2023-02-09T04:19:47.081Z,102905.09
2023-02-09T04:24:39.882Z,102901.60
2023-02-09T04:29:32.676Z,102901.77
2023-02-09T04:34:25.598Z,102907.38
2023-02-09T04:39:18.681Z,102912.42
2023-02-09T04:44:11.548Z,102911.15
2023-02-09T04:49:05.193Z,102909.30
2023-02-09T04:53:58.104Z,102920.90
2023-02-09T04:59:08.566Z,102917.06
2023-02-09T05:04:01.380Z,102912.02
2023-02-09T05:08:54.254Z,102902.59
2023-02-09T05:13:47.060Z,102900.47
2023-02-09T05:18:39.916Z,102899.23
2023-02-09T05:23:33.012Z,102893.61
2023-02-09T05:28:26.431Z,102898.84
2023-02-09T05:33:19.241Z,102898.86
2023-02-09T05:38:12.024Z,102891.63
2023-02-09T05:43:04.860Z,102898.16
2023-02-09T05:47:57.658Z,102894.93
2023-02-09T05:52:50.465Z,102889.35
2023-02-09T05:57:43.358Z,102883.86
2023-02-09T06:02:36.206Z,102882.57
2023-02-09T06:07:29.022Z,102878.48
2023-02-09T06:12:21.844Z,102880.05
2023-02-09T06:17:14.656Z,102883.82
2023-02-09T06:22:09.807Z,102879.36
2023-02-09T06:27:02.590Z,102881.39
2023-02-09T06:31:55.510Z,102879.88
2023-02-09T06:36:48.440Z,102877.30
2023-02-09T06:41:42.211Z,102882.55
2023-02-09T06:46:35.336Z,102887.67
2023-02-09T06:51:28.313Z,102882.61
2023-02-09T06:56:21.545Z,102880.48
2023-02-09T07:01:16.857Z,102875.70
2023-02-09T07:06:28.477Z,102872.32
2023-02-09T07:11:22.613Z,102870.08
2023-02-09T07:16:16.613Z,102871.73
2023-02-09T07:21:18.594Z,102874.14
2023-02-09T07:26:17.970Z,102878.14
2023-02-09T07:31:13.392Z,102879.25
2023-02-09T07:36:08.682Z,102871.88
2023-02-09T07:41:03.510Z,102872.87
2023-02-09T07:46:08.355Z,102871.30
2023-02-09T07:51:01.331Z,102862.23
2023-02-09T07:55:54.650Z,102857.21
2023-02-09T08:00:50.404Z,102850.11
2023-02-09T08:05:54.059Z,102846.20
2023-02-09T08:10:46.957Z,102844.91
2023-02-09T08:15:46.944Z,102845.45
2023-02-09T08:20:40.256Z,102850.11
2023-02-09T08:25:33.897Z,102846.02
2023-02-09T08:30:26.947Z,102842.83
2023-02-09T08:35:19.988Z,102835.77
2023-02-09T08:40:15.434Z,102824.52
2023-02-09T08:45:08.942Z,102813.65
2023-02-09T08:50:02.795Z,102810.66
2023-02-09T08:54:57.792Z,102812.54
2023-02-09T08:59:56.712Z,102813.08
2023-02-09T09:04:54.164Z,102811.86
2023-02-09T09:10:04.429Z,102810.27
2023-02-09T09:14:59.432Z,102797.48
2023-02-09T09:19:56.682Z,102799.43
2023-02-09T09:24:49.549Z,102791.94
2023-02-09T09:29:43.154Z,102788.71
2023-02-09T09:34:36.477Z,102790.27
2023-02-09T09:39:29.523Z,102796.94
2023-02-09T09:44:33.638Z,102787.27
2023-02-09T09:49:29.633Z,102777.61
2023-02-09T09:54:28.765Z,102774.21
2023-02-09T09:59:26.941Z,102768.33
2023-02-09T10:04:21.094Z,102756.48
2023-02-09T10:09:34.728Z,102751.95
2023-02-09T10:14:27.640Z,102751.02
2023-02-09T10:19:23.341Z,102726.38
2023-02-09T10:24:37.529Z,102708.95
2023-02-09T10:29:30.483Z,102693.50
2023-02-09T10:34:32.103Z,102687.40
2023-02-09T10:39:34.240Z,102683.09
2023-02-09T10:44:31.880Z,102666.80
2023-02-09T10:49:30.175Z,102653.95
2023-02-09T10:54:25.202Z,102649.14
2023-02-09T10:59:40.915Z,102634.61
2023-02-09T11:04:56.498Z,102624.06
2023-02-09T11:10:26.963Z,102616.95
2023-02-09T11:15:27.875Z,102601.05
2023-02-09T11:20:23.535Z,102586.62
2023-02-09T11:25:17.783Z,102577.00
2023-02-09T11:30:42.835Z,102571.63
2023-02-09T11:35:57.919Z,102560.45
2023-02-09T11:40:55.042Z,102556.05
2023-02-09T11:45:55.651Z,102552.14
2023-02-09T11:51:15.139Z,102540.98
2023-02-09T11:56:15.155Z,102528.89
2023-02-09T12:01:19.992Z,102527.92
2023-02-09T12:06:17.279Z,102521.64
2023-02-09T12:11:19.180Z,102525.42
2023-02-09T12:16:15.833Z,102520.93
2023-02-09T12:21:10.443Z,102513.00
2023-02-09T12:26:12.924Z,102513.44
2023-02-09T12:31:17.094Z,102501.42
2023-02-09T12:36:13.803Z,102488.97
2023-02-09T12:41:41.245Z,102482.23
2023-02-09T12:46:34.290Z,102470.35
2023-02-09T12:51:42.241Z,102459.56
2023-02-09T12:56:35.777Z,102447.98
2023-02-09T13:02:06.376Z,102441.14
2023-02-09T13:07:00.534Z,102441.12
2023-02-09T13:12:05.166Z,102445.30
2023-02-09T13:17:10.198Z,102442.52
2023-02-09T13:22:42.480Z,102433.74
2023-02-09T13:27:45.069Z,102428.92
2023-02-09T13:33:09.748Z,102422.04
2023-02-09T13:38:16.882Z,102413.63
2023-02-09T13:43:13.610Z,102412.55
2023-02-09T13:48:23.031Z,102403.80
2023-02-09T13:53:19.156Z,102400.42
2023-02-09T13:58:21.226Z,102398.87
2023-02-09T14:03:32.411Z,102395.00
2023-02-09T14:08:26.868Z,102392.16
2023-02-09T14:13:26.173Z,102388.58
2023-02-09T14:18:29.172Z,102379.47
2023-02-09T14:23:23.542Z,102373.41
2023-02-09T14:28:17.081Z,102371.66
2023-02-09T14:33:28.695Z,102361.41
2023-02-09T14:38:44.258Z,102357.89
2023-02-09T14:43:37.192Z,102353.31
2023-02-09T14:48:32.466Z,102355.27
2023-02-09T14:53:32.244Z,102354.90
2023-02-09T14:58:31.634Z,102348.24
2023-02-09T15:03:24.561Z,102338.78
2023-02-09T15:08:22.174Z,102338.84
2023-02-09T15:13:15.675Z,102341.80
2023-02-09T15:18:08.731Z,102344.40
2023-02-09T15:23:10.163Z,102347.66
2023-02-09T15:28:13.727Z,102344.29
2023-02-09T15:33:08.902Z,102348.94
2023-02-09T15:38:03.234Z,102348.80
2023-02-09T15:43:13.423Z,102349.96
2023-02-09T15:48:07.675Z,102342.59
2023-02-09T15:53:04.290Z,102340.89
2023-02-09T15:57:58.073Z,102328.48
2023-02-09T16:02:51.950Z,102319.04
2023-02-09T16:07:45.497Z,102318.71
2023-02-09T16:12:38.391Z,102320.84
2023-02-09T16:17:31.315Z,102329.98
2023-02-09T16:22:25.365Z,102325.18
2023-02-09T16:27:25.599Z,102321.20
2023-02-09T16:32:22.190Z,102320.58
2023-02-09T16:37:21.021Z,102322.71
2023-02-09T16:42:15.873Z,102323.06
2023-02-09T16:47:21.150Z,102311.79
2023-02-09T16:52:21.666Z,102305.18
2023-02-09T16:57:17.438Z,102295.54
2023-02-09T17:02:40.995Z,102294.46
2023-02-09T17:07:52.574Z,102290.71
2023-02-09T17:12:48.504Z,102294.61
2023-02-09T17:17:48.224Z,102289.52
2023-02-09T17:22:42.605Z,102290.64
2023-02-09T17:27:35.788Z,102289.52
2023-02-09T17:32:29.282Z,102282.55
2023-02-09T17:37:22.403Z,102274.50
2023-02-09T17:42:23.581Z,102270.27
2023-02-09T17:47:21.093Z,102263.29
2023-02-09T17:52:18.553Z,102264.74
2023-02-09T17:57:16.538Z,102259.13
2023-02-09T18:02:19.866Z,102244.22
2023-02-09T18:07:14.623Z,102235.74
2023-02-09T18:12:22.977Z,102232.49
2023-02-09T18:17:16.794Z,102226.39
2023-02-09T18:22:14.129Z,102222.64
2023-02-09T18:27:08.285Z,102221.73
2023-02-09T18:32:03.001Z,102222.38
2023-02-09T18:36:56.118Z,102217.21
2023-02-09T18:41:54.447Z,102212.13
2023-02-09T18:46:48.047Z,102205.05
2023-02-09T18:51:40.870Z,102199.97
2023-02-09T18:56:33.792Z,102202.98
2023-02-09T19:01:26.901Z,102193.54
2023-02-09T19:06:21.413Z,102190.52
2023-02-09T19:11:16.273Z,102188.74
2023-02-09T19:16:13.550Z,102189.55
2023-02-09T19:21:08.057Z,102188.72
2023-02-09T19:26:06.520Z,102177.95
2023-02-09T19:30:59.693Z,102172.71
2023-02-09T19:36:00.375Z,102165.67
2023-02-09T19:41:09.517Z,102159.75
2023-02-09T19:46:04.630Z,102160.73
2023-02-09T19:50:59.601Z,102162.80
2023-02-09T19:55:55.532Z,102159.09
2023-02-09T20:00:49.526Z,102149.00
2023-02-09T20:05:43.382Z,102141.44
2023-02-09T20:10:36.335Z,102138.36
2023-02-09T20:15:29.181Z,102122.05
2023-02-09T20:20:22.020Z,102118.40
2023-02-09T20:25:14.869Z,102122.05
2023-02-09T20:30:08.541Z,102123.32
2023-02-09T20:35:01.360Z,102117.46
2023-02-09T20:39:54.202Z,102119.64
2023-02-09T20:45:05.457Z,102109.91
2023-02-09T20:50:01.957Z,102108.48
2023-02-09T20:54:54.838Z,102112.45
2023-02-09T20:59:48.361Z,102113.00
2023-02-09T21:04:41.317Z,102115.24
2023-02-09T21:09:35.659Z,102122.11
2023-02-09T21:14:41.246Z,102120.45
2023-02-09T21:19:36.258Z,102120.26
2023-02-09T21:24:34.391Z,102116.61
2023-02-09T21:29:32.761Z,102119.81
2023-02-09T21:34:25.900Z,102124.13
2023-02-09T21:39:18.776Z,102118.38
2023-02-09T21:44:13.118Z,102111.30
2023-02-09T21:49:06.457Z,102100.82
2023-02-09T21:53:59.851Z,102095.67
2023-02-09T21:58:52.892Z,102086.16
2023-02-09T22:03:49.697Z,102078.69
2023-02-09T22:08:42.529Z,102083.23
2023-02-09T22:13:35.864Z,102087.37
2023-02-09T22:18:28.585Z,102085.27
2023-02-09T22:23:21.452Z,102099.27
2023-02-09T22:28:14.325Z,102093.34
2023-02-09T22:33:07.116Z,102095.85
2023-02-09T22:37:59.929Z,102090.21
2023-02-09T22:42:52.710Z,102080.83
2023-02-09T22:47:45.517Z,102074.64
2023-02-09T22:52:38.373Z,102077.80
2023-02-09T22:57:31.247Z,102069.13
2023-02-09T23:02:25.303Z,102068.59
2023-02-09T23:07:18.130Z,102063.38
2023-02-09T23:12:10.894Z,102058.59
2023-02-09T23:17:03.653Z,102052.67
2023-02-09T23:21:56.627Z,102056.94
2023-02-09T23:26:49.699Z,102061.95
2023-02-09T23:31:44.071Z,102060.31
2023-02-09T23:36:36.904Z,102049.73
2023-02-09T23:41:29.999Z,102041.39
2023-02-09T23:46:28.179Z,102039.65
2023-02-09T23:51:26.610Z,102037.75
2023-02-09T23:56:20.667Z,102030.68
